Higginsport, Ohio
Current Conditions -  °F | °C
As of 9:15 PM on Saturday 22 Nov 2014 (Local Time) from KFGX Reporting Station
Clear Clear  
Wind Chill: 45°   Ceiling: Unl
Heat Index: 49°   Visibility: 10mi
Dew Point: 31°   Wind: 8mph
Humidity: 50%   Direction: 170°S
Pressure: 30.12"   Gusts: NA
Location:  38.79°N, 83.97°W
Report Text: KFGX 230215Z AUTO 17007KT 10SM CLR 09/M01 A3012 RMK AO2 T00921008
Loading
Personal Weather Stations






























Interactive Weather Map New forecast layout! Learn more

10-Day Weather Forecast

Advertisements
Track Severe Weather on mobile